Terminal Aerodrome Forecast
Issued by NWS Nashville, TN

Current Version | Previous Version | Text Only | Print | Product List | Glossary On
Versions: 1 2 3 4 5 6 7 8 9 10 11 12 13 14 15 16
000
FTUS44 KOHX 271100
TAFCSV
TAF
KCSV 271122Z 2712/2812 17007KT P6SM VCSH BKN070
     FM271900 18007KT P6SM VCSH SCT020 BKN040
     FM280200 21005KT 3SM RA BKN008 OVC012
     FM280700 17003KT 4SM -RA BR OVC003=

USA.gov is the U.S. government's official web portal to all federal, state and local government web resources and services.